createdAt,value
2017-07-06T00:02:00.780Z,6.53
2017-07-06T00:04:28.129Z,7.10
2017-07-06T00:06:55.542Z,7.30
2017-07-06T00:09:22.931Z,7.43
2017-07-06T00:11:50.300Z,7.40
2017-07-06T00:14:18.082Z,7.20
2017-07-06T00:16:45.460Z,7.50
2017-07-06T00:19:12.852Z,7.50
2017-07-06T00:21:40.245Z,7.90
2017-07-06T00:24:07.567Z,7.03
2017-07-06T00:26:34.977Z,8.00
2017-07-06T00:29:02.337Z,7.50
2017-07-06T00:31:29.698Z,6.80
2017-07-06T00:33:57.014Z,7.33
2017-07-06T00:36:24.390Z,7.47
2017-07-06T00:38:51.732Z,7.60
2017-07-06T00:41:19.049Z,6.67
2017-07-06T00:43:46.482Z,7.30
2017-07-06T00:46:13.858Z,6.93
2017-07-06T00:48:41.201Z,6.50
2017-07-06T00:51:08.625Z,6.73
2017-07-06T00:53:35.953Z,8.00
2017-07-06T00:56:03.280Z,7.40
2017-07-06T00:58:30.679Z,7.33
2017-07-06T01:00:57.995Z,7.47
2017-07-06T01:03:25.327Z,7.40
2017-07-06T01:05:52.693Z,7.17
2017-07-06T01:08:20.058Z,7.50
2017-07-06T01:10:47.420Z,7.70
2017-07-06T01:13:14.816Z,7.90
2017-07-06T01:15:42.210Z,7.23
2017-07-06T01:18:09.594Z,7.00
2017-07-06T01:20:37.003Z,7.27
2017-07-06T01:23:04.356Z,7.27
2017-07-06T01:25:31.710Z,7.37
2017-07-06T01:27:59.141Z,7.37
2017-07-06T01:30:26.675Z,7.07
2017-07-06T01:32:53.985Z,7.27
2017-07-06T01:35:21.407Z,7.13
2017-07-06T01:37:48.813Z,6.57
2017-07-06T01:40:16.150Z,6.73
2017-07-06T01:42:43.587Z,6.20
2017-07-06T01:45:10.917Z,6.27
2017-07-06T01:47:38.246Z,6.67
2017-07-06T01:50:05.662Z,6.90
2017-07-06T01:52:33.018Z,6.00
2017-07-06T01:55:00.523Z,7.17
2017-07-06T01:57:27.968Z,6.67
2017-07-06T01:59:55.354Z,6.40
2017-07-06T02:02:22.788Z,6.40
2017-07-06T02:04:50.145Z,6.50
2017-07-06T02:07:17.471Z,6.53
2017-07-06T02:09:44.853Z,6.37
2017-07-06T02:12:12.259Z,6.77
2017-07-06T02:14:39.586Z,7.27
2017-07-06T02:17:06.927Z,6.70
2017-07-06T02:19:34.284Z,6.07
2017-07-06T02:22:01.645Z,6.80
2017-07-06T02:24:29.005Z,7.47
2017-07-06T02:26:56.441Z,6.20
2017-07-06T02:29:23.792Z,5.70
2017-07-06T02:31:51.137Z,6.73
2017-07-06T02:34:18.517Z,8.37
2017-07-06T02:36:45.833Z,5.90
2017-07-06T02:39:13.203Z,6.70
2017-07-06T02:41:40.670Z,6.30
2017-07-06T02:44:08.046Z,5.87
2017-07-06T02:46:35.506Z,6.77
2017-07-06T02:49:02.906Z,5.47
2017-07-06T02:51:30.277Z,5.83
2017-07-06T02:53:57.641Z,7.17
2017-07-06T02:56:25.038Z,7.03
2017-07-06T02:58:52.348Z,5.70
2017-07-06T03:01:19.707Z,6.43
2017-07-06T03:03:47.155Z,6.27
2017-07-06T03:06:14.484Z,6.57
2017-07-06T03:08:41.843Z,6.97
2017-07-06T03:11:09.291Z,5.70
2017-07-06T03:13:36.639Z,6.60
2017-07-06T03:16:04.015Z,6.77
2017-07-06T03:18:31.388Z,6.03
2017-07-06T03:20:58.734Z,5.50
2017-07-06T03:23:26.069Z,5.00
2017-07-06T03:25:53.475Z,5.70
2017-07-06T03:28:20.870Z,5.83
2017-07-06T03:30:48.283Z,5.57
2017-07-06T03:33:15.690Z,7.80
2017-07-06T03:35:43.010Z,6.10
2017-07-06T03:38:10.446Z,5.77
2017-07-06T03:40:37.832Z,6.20
2017-07-06T03:43:05.228Z,7.20
2017-07-06T03:45:32.602Z,5.93
2017-07-06T03:47:59.949Z,6.20
2017-07-06T03:50:27.359Z,6.43
2017-07-06T03:52:54.814Z,6.33
2017-07-06T03:55:22.197Z,6.17
2017-07-06T03:57:49.614Z,10.70
2017-07-06T04:00:16.955Z,7.00
2017-07-06T04:02:44.415Z,7.83
2017-07-06T04:05:11.729Z,8.00
2017-07-06T04:07:39.569Z,8.43
2017-07-06T04:10:07.151Z,8.60
2017-07-06T04:12:34.519Z,8.33
2017-07-06T04:15:01.849Z,8.33
2017-07-06T04:17:29.271Z,7.87
2017-07-06T04:19:56.638Z,7.90
2017-07-06T04:22:24.012Z,8.83
2017-07-06T04:24:51.403Z,8.83
2017-07-06T04:27:18.795Z,8.40
2017-07-06T04:29:46.191Z,10.40
2017-07-06T04:32:13.595Z,10.23
2017-07-06T04:34:41.263Z,8.77
2017-07-06T04:37:08.597Z,9.30
2017-07-06T04:39:35.972Z,9.43
2017-07-06T04:42:03.351Z,11.07
2017-07-06T04:44:30.813Z,9.60
2017-07-06T04:46:58.255Z,8.00
2017-07-06T04:49:25.635Z,8.80
2017-07-06T04:51:53.016Z,8.03
2017-07-06T04:54:20.385Z,8.57
2017-07-06T04:56:47.817Z,8.63
2017-07-06T04:59:15.153Z,8.20
2017-07-06T05:01:42.536Z,8.13
2017-07-06T05:04:09.923Z,8.43
2017-07-06T05:06:37.250Z,8.00
2017-07-06T05:09:04.630Z,9.57
2017-07-06T05:11:31.951Z,8.40
2017-07-06T05:13:59.331Z,8.27
2017-07-06T05:16:27.356Z,8.70
2017-07-06T05:18:54.695Z,10.20
2017-07-06T05:21:22.051Z,9.03
2017-07-06T05:23:49.452Z,8.50
2017-07-06T05:26:16.772Z,8.33
2017-07-06T05:28:44.159Z,8.10
2017-07-06T05:31:11.517Z,8.50
2017-07-06T05:33:38.857Z,9.60
2017-07-06T05:36:06.211Z,9.33
2017-07-06T05:38:33.602Z,9.20
2017-07-06T05:41:00.964Z,9.53
2017-07-06T05:43:28.956Z,9.30
2017-07-06T05:45:56.314Z,8.40
2017-07-06T05:48:23.674Z,9.10
2017-07-06T05:50:51.842Z,9.60
2017-07-06T05:53:19.248Z,9.67
2017-07-06T05:55:46.579Z,8.90
2017-07-06T05:58:13.925Z,10.73
2017-07-06T06:00:41.344Z,9.20
2017-07-06T06:03:08.706Z,9.90
2017-07-06T06:05:36.110Z,9.63
2017-07-06T06:08:03.521Z,8.87
2017-07-06T06:10:30.866Z,8.63
2017-07-06T06:12:58.186Z,9.00
2017-07-06T06:15:25.617Z,8.90
2017-07-06T06:17:52.977Z,9.47
2017-07-06T06:20:21.270Z,8.63
2017-07-06T06:22:48.671Z,10.03
2017-07-06T06:25:16.002Z,9.20
2017-07-06T06:27:43.330Z,9.53
2017-07-06T06:30:10.699Z,9.13
2017-07-06T06:32:38.084Z,8.77
2017-07-06T06:35:05.413Z,10.33
2017-07-06T06:37:32.827Z,9.00
2017-07-06T06:40:00.191Z,9.00
2017-07-06T06:42:27.574Z,9.60
2017-07-06T06:44:55.058Z,11.13
2017-07-06T06:47:22.429Z,13.40
2017-07-06T06:49:49.839Z,9.90
2017-07-06T06:52:17.226Z,10.10
2017-07-06T06:54:44.594Z,9.50
2017-07-06T07:00:02.662Z,10.00
2017-07-06T07:02:30.098Z,14.33
2017-07-06T07:04:57.463Z,10.90
2017-07-06T07:07:24.795Z,9.77
2017-07-06T07:09:52.171Z,10.63
2017-07-06T07:12:19.794Z,11.33
2017-07-06T07:14:47.138Z,10.53
2017-07-06T07:17:14.488Z,10.77
2017-07-06T07:19:41.887Z,9.77
2017-07-06T07:22:09.208Z,11.50
2017-07-06T07:24:36.617Z,11.23
2017-07-06T07:27:03.961Z,10.70
2017-07-06T07:29:31.314Z,10.67
2017-07-06T07:31:58.683Z,10.80
2017-07-06T07:34:26.084Z,10.23
2017-07-06T07:36:53.463Z,9.50
2017-07-06T07:39:20.995Z,8.80
2017-07-06T07:41:48.309Z,9.77
2017-07-06T07:44:15.662Z,8.77
2017-07-06T07:46:43.168Z,8.70
2017-07-06T07:49:10.542Z,9.60
2017-07-06T07:51:37.994Z,9.50
2017-07-06T07:54:05.347Z,9.57
2017-07-06T07:56:32.735Z,8.63
2017-07-06T07:59:00.065Z,9.43
2017-07-06T08:01:28.192Z,9.80
2017-07-06T08:03:55.592Z,9.40
2017-07-06T08:06:22.904Z,8.50
2017-07-06T08:08:50.262Z,8.37
2017-07-06T08:11:17.806Z,8.73
2017-07-06T08:13:45.159Z,10.13
2017-07-06T08:16:12.591Z,8.87
2017-07-06T08:18:39.987Z,8.97
2017-07-06T08:21:07.285Z,9.13
2017-07-06T08:23:34.645Z,9.63
2017-07-06T08:26:02.027Z,8.83
2017-07-06T08:28:29.403Z,8.63
2017-07-06T08:30:56.778Z,9.20
2017-07-06T08:35:57.858Z,8.93
2017-07-06T08:38:25.162Z,8.70
2017-07-06T08:40:52.544Z,9.40
2017-07-06T08:43:19.951Z,9.73
2017-07-06T08:45:47.334Z,10.00
2017-07-06T08:48:14.643Z,9.63
2017-07-06T08:50:43.583Z,9.60
2017-07-06T08:53:10.970Z,9.13
2017-07-06T08:55:38.347Z,9.20
2017-07-06T08:58:05.701Z,8.93
2017-07-06T09:00:33.046Z,8.80
2017-07-06T09:03:00.437Z,8.43
2017-07-06T09:05:27.853Z,7.07
2017-07-06T09:07:55.254Z,6.90
2017-07-06T09:10:22.610Z,10.30
2017-07-06T09:12:50.094Z,7.47
2017-07-06T09:15:17.408Z,6.90
2017-07-06T09:17:44.757Z,6.77
2017-07-06T09:20:12.176Z,6.53
2017-07-06T09:22:39.590Z,6.80
2017-07-06T09:25:06.909Z,7.93
2017-07-06T09:27:34.264Z,8.23
2017-07-06T09:30:01.643Z,7.93
2017-07-06T09:32:28.993Z,7.17
2017-07-06T09:34:56.359Z,7.00
2017-07-06T09:37:23.719Z,8.13
2017-07-06T09:39:51.076Z,9.10
2017-07-06T09:42:18.520Z,7.53
2017-07-06T09:44:45.944Z,7.60
2017-07-06T09:47:13.310Z,7.50
2017-07-06T09:49:40.709Z,7.80
2017-07-06T09:52:08.050Z,8.10
2017-07-06T09:54:35.376Z,7.23
2017-07-06T09:57:02.821Z,7.73
2017-07-06T09:59:30.137Z,7.00
2017-07-06T10:01:57.475Z,6.77
2017-07-06T10:04:24.906Z,6.30
2017-07-06T10:06:52.223Z,6.27
2017-07-06T10:09:19.626Z,6.20
2017-07-06T10:11:47.109Z,7.10
2017-07-06T10:14:14.468Z,6.53
2017-07-06T10:16:41.842Z,6.50
2017-07-06T10:19:09.268Z,6.20
2017-07-06T10:21:36.625Z,6.37
2017-07-06T10:24:04.020Z,6.50
2017-07-06T10:26:31.708Z,6.37
2017-07-06T10:28:59.091Z,6.07
2017-07-06T10:31:26.663Z,7.00
2017-07-06T10:33:54.070Z,6.90
2017-07-06T10:36:21.440Z,6.57
2017-07-06T10:38:48.835Z,6.30
2017-07-06T10:41:16.272Z,6.97
2017-07-06T10:43:43.615Z,6.70
2017-07-06T10:46:10.976Z,6.80
2017-07-06T10:48:38.385Z,6.67
2017-07-06T10:51:05.822Z,6.30
2017-07-06T10:53:33.155Z,5.87
2017-07-06T10:56:00.543Z,6.37
2017-07-06T10:58:27.936Z,5.90
2017-07-06T11:00:55.373Z,7.30
2017-07-06T11:03:23.088Z,6.03
2017-07-06T11:05:50.439Z,6.20
2017-07-06T11:08:17.864Z,5.77
2017-07-06T11:10:45.359Z,6.03
2017-07-06T11:13:12.799Z,5.50
2017-07-06T11:15:40.187Z,5.40
2017-07-06T11:18:07.622Z,6.27
2017-07-06T11:20:34.960Z,5.37
2017-07-06T11:23:02.368Z,4.37
2017-07-06T11:25:29.743Z,4.80
2017-07-06T11:27:57.131Z,4.40
2017-07-06T11:30:24.588Z,4.90
2017-07-06T11:32:52.267Z,4.67
2017-07-06T11:35:19.619Z,4.27
2017-07-06T11:37:46.942Z,4.20
2017-07-06T11:40:14.350Z,4.73
2017-07-06T11:42:41.747Z,4.70
2017-07-06T11:45:09.156Z,4.47
2017-07-06T11:47:36.606Z,4.40
2017-07-06T11:50:03.957Z,3.97
2017-07-06T11:52:31.348Z,4.60
2017-07-06T11:54:58.764Z,4.57
2017-07-06T11:57:26.142Z,4.53
2017-07-06T11:59:53.496Z,4.67
2017-07-06T12:02:20.890Z,4.60
2017-07-06T12:04:48.225Z,4.50
2017-07-06T12:07:15.645Z,3.93
2017-07-06T12:09:43.079Z,4.13
2017-07-06T12:12:10.438Z,4.20
2017-07-06T12:14:37.778Z,4.23
2017-07-06T12:17:05.227Z,3.80
2017-07-06T12:19:32.572Z,4.07
2017-07-06T12:21:59.919Z,4.10
2017-07-06T12:24:27.373Z,4.13
2017-07-06T12:26:54.782Z,4.10
2017-07-06T12:29:22.172Z,3.90
2017-07-06T12:31:49.856Z,4.90
2017-07-06T12:34:17.183Z,8.00
2017-07-06T12:36:44.517Z,4.20
2017-07-06T12:39:11.975Z,3.87
2017-07-06T12:41:39.348Z,4.20
2017-07-06T12:44:06.695Z,4.80
2017-07-06T12:46:34.145Z,4.20
2017-07-06T12:49:01.460Z,4.50
2017-07-06T12:51:28.881Z,5.07
2017-07-06T12:53:56.389Z,5.03
2017-07-06T12:56:23.735Z,4.47
2017-07-06T12:58:51.091Z,4.13
2017-07-06T13:01:18.472Z,4.50
2017-07-06T13:03:45.896Z,4.23
2017-07-06T13:06:14.210Z,4.70
2017-07-06T13:08:41.621Z,5.83
2017-07-06T13:11:09.042Z,5.20
2017-07-06T13:13:37.045Z,4.97
2017-07-06T13:16:04.436Z,5.17
2017-07-06T13:18:31.844Z,5.03
2017-07-06T13:20:59.167Z,5.43
2017-07-06T13:23:26.604Z,5.17
2017-07-06T13:25:53.917Z,5.40
2017-07-06T13:28:21.243Z,4.60
2017-07-06T13:30:48.620Z,5.47
2017-07-06T13:33:16.077Z,5.00
2017-07-06T13:35:43.440Z,5.17
2017-07-06T13:38:10.887Z,5.07
2017-07-06T13:40:38.253Z,4.30
2017-07-06T13:43:05.664Z,4.70
2017-07-06T13:45:33.046Z,5.20
2017-07-06T13:48:00.477Z,5.27
2017-07-06T13:50:27.980Z,7.37
2017-07-06T13:52:55.416Z,4.70
2017-07-06T13:55:22.764Z,4.10
2017-07-06T13:57:50.154Z,4.67
2017-07-06T14:00:17.539Z,4.47
2017-07-06T14:02:44.890Z,5.20
2017-07-06T14:05:12.235Z,4.60
2017-07-06T14:07:39.650Z,4.77
2017-07-06T14:10:07.019Z,5.40
2017-07-06T14:12:34.537Z,4.60
2017-07-06T14:15:01.983Z,5.27
2017-07-06T14:17:29.339Z,4.30
2017-07-06T14:19:56.791Z,4.53
2017-07-06T14:22:24.199Z,5.17
2017-07-06T14:24:51.540Z,5.20
2017-07-06T14:27:18.867Z,4.47
2017-07-06T14:29:46.288Z,4.73
2017-07-06T14:32:13.603Z,9.20
2017-07-06T14:34:40.930Z,5.10
2017-07-06T14:37:08.348Z,4.87
2017-07-06T14:39:35.758Z,4.63
2017-07-06T14:42:03.088Z,5.80
2017-07-06T14:44:30.488Z,4.67
2017-07-06T14:46:57.815Z,4.60
2017-07-06T14:49:25.220Z,4.43
2017-07-06T14:51:52.662Z,5.03
2017-07-06T14:54:20.102Z,4.67
2017-07-06T14:56:47.435Z,4.90
2017-07-06T14:59:14.851Z,5.00
2017-07-06T15:01:42.199Z,5.17
2017-07-06T15:04:09.591Z,5.00
2017-07-06T15:06:36.956Z,5.07
2017-07-06T15:09:04.358Z,4.83
2017-07-06T15:11:31.705Z,4.80
2017-07-06T15:13:59.062Z,4.67
2017-07-06T15:16:26.374Z,4.27
2017-07-06T15:18:53.768Z,4.83
2017-07-06T15:21:21.553Z,5.17
2017-07-06T15:23:48.898Z,4.40
2017-07-06T15:26:16.205Z,5.43
2017-07-06T15:28:43.606Z,4.50
2017-07-06T15:31:10.947Z,4.33
2017-07-06T15:33:38.320Z,5.70
2017-07-06T15:36:05.684Z,4.50
2017-07-06T15:38:33.023Z,4.60
2017-07-06T15:41:00.403Z,4.90
2017-07-06T15:43:27.795Z,4.93
2017-07-06T15:45:55.151Z,4.90
2017-07-06T15:48:22.461Z,4.90
2017-07-06T15:50:49.847Z,5.13
2017-07-06T15:53:17.260Z,5.37
2017-07-06T15:55:44.603Z,5.80
2017-07-06T15:58:11.958Z,5.10
2017-07-06T16:00:39.299Z,4.77
2017-07-06T16:03:06.675Z,5.20
2017-07-06T16:05:34.113Z,5.43
2017-07-06T16:08:01.441Z,5.00
2017-07-06T16:10:28.806Z,3.90
2017-07-06T16:12:56.183Z,4.33
2017-07-06T16:15:23.571Z,5.77
2017-07-06T16:17:50.943Z,6.47
2017-07-06T16:20:19.021Z,4.10
2017-07-06T16:22:46.335Z,3.83
2017-07-06T16:25:13.653Z,5.10
2017-07-06T16:27:41.093Z,4.33
2017-07-06T16:30:08.472Z,3.80
2017-07-06T16:32:35.904Z,4.70
2017-07-06T16:35:03.274Z,4.37
2017-07-06T16:37:30.613Z,5.03
2017-07-06T16:39:57.980Z,4.30
2017-07-06T16:42:25.500Z,5.67
2017-07-06T16:44:52.811Z,11.27
2017-07-06T16:47:20.131Z,7.23
2017-07-06T16:49:47.478Z,6.20
2017-07-06T16:52:14.812Z,5.50
2017-07-06T16:54:42.177Z,3.97
2017-07-06T16:57:09.557Z,4.40
2017-07-06T16:59:36.870Z,4.17
2017-07-06T17:02:04.192Z,4.90
2017-07-06T17:04:31.826Z,4.97
2017-07-06T17:06:59.202Z,4.53
2017-07-06T17:09:26.574Z,4.90
2017-07-06T17:11:53.973Z,4.30
2017-07-06T17:14:21.326Z,4.00
2017-07-06T17:16:48.779Z,7.50
2017-07-06T17:19:16.128Z,4.50
2017-07-06T17:21:43.478Z,4.17
2017-07-06T17:24:10.906Z,4.33
2017-07-06T17:26:38.240Z,4.20
2017-07-06T17:29:05.631Z,4.20
2017-07-06T17:31:32.985Z,4.37
2017-07-06T17:34:00.383Z,4.53
2017-07-06T17:36:27.699Z,6.47
2017-07-06T17:38:55.141Z,4.33
2017-07-06T17:41:22.531Z,5.67
2017-07-06T17:43:49.886Z,14.70
2017-07-06T17:46:18.169Z,13.00
2017-07-06T17:48:45.573Z,7.63
2017-07-06T17:51:12.930Z,6.47
2017-07-06T17:53:40.233Z,9.07
2017-07-06T17:56:07.692Z,4.80
2017-07-06T17:58:35.017Z,5.50
2017-07-06T18:01:03.208Z,6.67
2017-07-06T18:03:30.587Z,7.43
2017-07-06T18:05:57.927Z,5.60
2017-07-06T18:08:25.326Z,7.33
2017-07-06T18:10:52.754Z,6.70
2017-07-06T18:13:20.128Z,6.50
2017-07-06T18:15:47.466Z,5.77
2017-07-06T18:18:14.829Z,7.63
2017-07-06T18:20:42.170Z,5.70
2017-07-06T18:23:09.485Z,6.00
2017-07-06T18:25:36.955Z,6.37
2017-07-06T18:28:04.334Z,6.17
2017-07-06T18:30:32.879Z,5.33
2017-07-06T18:33:00.292Z,5.87
2017-07-06T18:35:27.598Z,6.03
2017-07-06T18:37:55.342Z,8.63
2017-07-06T18:40:22.752Z,6.67
2017-07-06T18:42:50.109Z,6.67
2017-07-06T18:45:17.502Z,8.90
2017-07-06T18:47:44.878Z,9.60
2017-07-06T18:50:12.223Z,6.57
2017-07-06T18:52:39.546Z,8.33
2017-07-06T18:55:06.903Z,7.10
2017-07-06T18:57:34.243Z,6.70
2017-07-06T19:00:01.614Z,8.27
2017-07-06T19:02:29.002Z,8.20
2017-07-06T19:04:56.330Z,8.47
2017-07-06T19:07:24.605Z,8.50
2017-07-06T19:09:51.988Z,8.27
2017-07-06T19:12:19.309Z,10.60
2017-07-06T19:14:46.710Z,10.60
2017-07-06T19:17:14.146Z,14.67
2017-07-06T19:19:41.577Z,8.70
2017-07-06T19:22:08.941Z,8.57
2017-07-06T19:24:36.313Z,12.37
2017-07-06T19:27:03.643Z,12.07
2017-07-06T19:29:30.979Z,7.97
2017-07-06T19:31:58.421Z,7.20
2017-07-06T19:34:25.765Z,8.33
2017-07-06T19:36:53.081Z,7.13
2017-07-06T19:39:20.477Z,6.77
2017-07-06T19:41:47.804Z,7.53
2017-07-06T19:44:15.181Z,5.10
2017-07-06T19:46:42.598Z,5.53
2017-07-06T19:49:10.484Z,6.10
2017-07-06T19:51:37.862Z,6.80
2017-07-06T19:54:05.205Z,5.60
2017-07-06T19:56:32.550Z,5.37
2017-07-06T19:58:59.933Z,5.60
2017-07-06T20:01:27.284Z,5.83
2017-07-06T20:03:54.638Z,7.00
2017-07-06T20:06:21.966Z,5.60
2017-07-06T20:08:49.340Z,7.70
2017-07-06T20:11:16.642Z,5.90
2017-07-06T20:13:44.018Z,6.00
2017-07-06T20:16:11.446Z,5.87
2017-07-06T20:18:38.761Z,6.03
2017-07-06T20:21:06.214Z,6.17
2017-07-06T20:23:33.598Z,6.00
2017-07-06T20:26:00.918Z,7.00
2017-07-06T20:28:28.233Z,6.40
2017-07-06T20:30:55.623Z,7.07
2017-07-06T20:33:22.933Z,6.63
2017-07-06T20:35:50.282Z,6.43
2017-07-06T20:38:17.675Z,7.00
2017-07-06T20:40:45.005Z,6.97
2017-07-06T20:43:12.329Z,8.63
2017-07-06T20:45:40.395Z,7.60
2017-07-06T20:48:08.488Z,11.33
2017-07-06T20:50:35.870Z,8.20
2017-07-06T20:53:03.552Z,7.30
2017-07-06T20:55:30.918Z,8.00
2017-07-06T20:57:58.274Z,10.70
2017-07-06T21:00:25.633Z,6.90
2017-07-06T21:02:52.978Z,6.43
2017-07-06T21:05:20.342Z,6.53
2017-07-06T21:07:47.757Z,6.73
2017-07-06T21:10:15.065Z,6.87
2017-07-06T21:12:42.482Z,6.93
2017-07-06T21:15:09.878Z,7.00
2017-07-06T21:17:38.041Z,7.00
2017-07-06T21:20:05.339Z,7.73
2017-07-06T21:22:32.704Z,7.80
2017-07-06T21:25:00.068Z,8.00
2017-07-06T21:27:27.385Z,7.67
2017-07-06T21:29:54.741Z,7.77
2017-07-06T21:32:22.073Z,8.20
2017-07-06T21:34:49.433Z,6.97
2017-07-06T21:37:16.813Z,7.60
2017-07-06T21:39:44.128Z,7.00
2017-07-06T21:42:11.502Z,7.63
2017-07-06T21:44:38.844Z,6.77
2017-07-06T21:47:06.255Z,12.30
2017-07-06T21:49:33.556Z,6.20
2017-07-06T21:52:00.960Z,6.33
2017-07-06T21:54:28.259Z,5.83
2017-07-06T21:56:55.610Z,6.10
2017-07-06T21:59:23.114Z,6.50
2017-07-06T22:01:50.573Z,6.77
2017-07-06T22:04:17.919Z,5.90
2017-07-06T22:06:45.302Z,8.07
2017-07-06T22:09:12.685Z,6.97
2017-07-06T22:11:40.033Z,6.37
2017-07-06T22:14:07.435Z,7.60
2017-07-06T22:16:34.754Z,7.33
2017-07-06T22:19:02.108Z,6.13
2017-07-06T22:21:30.481Z,6.60
2017-07-06T22:23:57.801Z,6.20
2017-07-06T22:26:25.133Z,6.43
2017-07-06T22:28:52.489Z,6.07
2017-07-06T22:31:19.810Z,6.60
2017-07-06T22:33:47.198Z,6.30
2017-07-06T22:36:14.609Z,6.80
2017-07-06T22:38:41.979Z,5.70
2017-07-06T22:41:12.428Z,5.70
2017-07-06T22:43:39.850Z,5.83
2017-07-06T22:46:07.248Z,7.40
2017-07-06T22:48:34.553Z,5.33
2017-07-06T22:51:01.976Z,5.60
2017-07-06T22:53:29.354Z,5.40
2017-07-06T22:55:56.650Z,6.83
2017-07-06T22:58:24.041Z,7.90
2017-07-06T23:00:51.363Z,7.57
2017-07-06T23:03:18.726Z,6.00
2017-07-06T23:05:46.131Z,5.07
2017-07-06T23:08:13.475Z,7.37
2017-07-06T23:10:40.786Z,5.70
2017-07-06T23:13:08.138Z,5.67
2017-07-06T23:15:35.489Z,5.07
2017-07-06T23:18:02.838Z,5.63
2017-07-06T23:20:30.428Z,7.13
2017-07-06T23:22:57.731Z,5.00
2017-07-06T23:25:25.110Z,6.13
2017-07-06T23:27:52.518Z,5.63
2017-07-06T23:30:19.932Z,6.23
2017-07-06T23:32:47.869Z,6.50
2017-07-06T23:35:15.323Z,6.53
2017-07-06T23:37:42.674Z,6.30
2017-07-06T23:40:10.029Z,6.37
2017-07-06T23:42:37.395Z,6.67
2017-07-06T23:45:04.710Z,6.87
2017-07-06T23:47:32.807Z,6.40
2017-07-06T23:50:00.217Z,6.37
2017-07-06T23:52:27.601Z,5.67
2017-07-06T23:54:54.976Z,6.27
2017-07-06T23:57:22.341Z,6.30
2017-07-06T23:59:49.712Z,6.43
